createdAt,value
2022-09-20T00:00:52.179Z,100453.63
2022-09-20T00:03:19.359Z,100448.25
2022-09-20T00:05:48.259Z,100451.16
2022-09-20T00:08:16.853Z,100442.47
2022-09-20T00:10:43.919Z,100455.06
2022-09-20T00:13:13.650Z,100457.34
2022-09-20T00:15:42.713Z,100447.84
2022-09-20T00:18:09.939Z,100454.44
2022-09-20T00:20:37.245Z,100457.75
2022-09-20T00:23:04.164Z,100464.16
2022-09-20T00:25:31.127Z,100460.03
2022-09-20T00:27:58.111Z,100449.47
2022-09-20T00:30:25.117Z,100453.81
2022-09-20T00:32:52.021Z,100445.53
2022-09-20T00:35:19.044Z,100443.84
2022-09-20T00:37:45.961Z,100443.25
2022-09-20T00:40:17.675Z,100435.97
2022-09-20T00:42:44.704Z,100432.44
2022-09-20T00:45:21.032Z,100443.44
2022-09-20T00:48:01.685Z,100441.97
2022-09-20T00:50:37.105Z,100435.16
2022-09-20T00:53:10.117Z,100447.53
2022-09-20T00:55:40.863Z,100443.44
2022-09-20T00:58:09.253Z,100436.41
2022-09-20T01:00:38.105Z,100435.41
2022-09-20T01:03:08.236Z,100428.53
2022-09-20T01:05:36.582Z,100422.53
2022-09-20T01:08:04.413Z,100431.00
2022-09-20T01:10:32.805Z,100433.25
2022-09-20T01:12:59.810Z,100433.41
2022-09-20T01:15:29.417Z,100434.41
2022-09-20T01:18:00.410Z,100433.78
2022-09-20T01:20:33.601Z,100439.38
2022-09-20T01:23:25.125Z,100440.03
2022-09-20T01:26:03.926Z,100439.81
2022-09-20T01:28:31.691Z,100437.75
2022-09-20T01:31:09.418Z,100437.16
2022-09-20T01:33:50.020Z,100430.59
2022-09-20T01:36:25.259Z,100429.94
2022-09-20T01:39:08.712Z,100440.25
2022-09-20T01:41:49.717Z,100429.09
2022-09-20T01:44:27.303Z,100432.84
2022-09-20T01:47:02.732Z,100426.44
2022-09-20T01:49:43.407Z,100415.88
2022-09-20T01:52:36.372Z,100422.03
2022-09-20T01:55:33.218Z,100421.19
2022-09-20T01:58:18.230Z,100421.22
2022-09-20T02:00:54.155Z,100411.06
2022-09-20T02:03:31.515Z,100411.22
2022-09-20T02:06:13.637Z,100408.69
2022-09-20T02:08:49.830Z,100411.53
2022-09-20T02:11:19.734Z,100417.16
2022-09-20T02:13:52.452Z,100416.22
2022-09-20T02:16:22.596Z,100405.47
2022-09-20T02:19:07.912Z,100405.44
2022-09-20T02:22:02.914Z,100390.97
2022-09-20T02:24:41.514Z,100392.03
2022-09-20T02:27:23.751Z,100390.75
2022-09-20T02:29:56.632Z,100393.84
2022-09-20T02:32:46.145Z,100386.16
2022-09-20T02:35:50.392Z,100381.97
2022-09-20T02:38:33.742Z,100391.47
2022-09-20T02:41:06.243Z,100394.56
2022-09-20T02:43:48.900Z,100382.16
2022-09-20T02:46:28.799Z,100386.28
2022-09-20T02:49:13.135Z,100389.22
2022-09-20T02:51:46.512Z,100384.91
2022-09-20T02:54:16.426Z,100392.97
2022-09-20T02:56:52.952Z,100396.22
2022-09-20T02:59:28.922Z,100397.59
2022-09-20T03:02:17.250Z,100402.09
2022-09-20T03:05:03.073Z,100397.78
2022-09-20T03:07:40.080Z,100410.97
2022-09-20T03:10:42.299Z,100418.59
2022-09-20T03:13:17.736Z,100413.47
2022-09-20T03:16:12.474Z,100415.94
2022-09-20T03:19:17.330Z,100414.13
2022-09-20T03:22:19.835Z,100420.72
2022-09-20T03:25:28.167Z,100429.38
2022-09-20T03:28:13.654Z,100429.50
2022-09-20T03:31:04.554Z,100431.16
2022-09-20T03:33:46.912Z,100427.66
2022-09-20T03:36:26.009Z,100430.97
2022-09-20T03:39:21.737Z,100432.44
2022-09-20T03:42:00.712Z,100432.31
2022-09-20T03:44:46.959Z,100433.19
2022-09-20T03:47:42.941Z,100436.22
2022-09-20T03:50:34.318Z,100427.25
2022-09-20T03:53:19.024Z,100427.91
2022-09-20T03:56:28.662Z,100434.72
2022-09-20T03:59:34.359Z,100434.88
2022-09-20T04:02:22.611Z,100424.50
2022-09-20T04:05:00.583Z,100424.59
2022-09-20T04:08:10.359Z,100431.81
2022-09-20T04:10:43.758Z,100431.34
2022-09-20T04:13:32.355Z,100427.59
2022-09-20T04:16:22.865Z,100422.91
2022-09-20T04:18:59.982Z,100425.09
2022-09-20T04:21:31.410Z,100429.53
2022-09-20T04:24:04.427Z,100430.50
2022-09-20T04:26:35.273Z,100437.28
2022-09-20T04:29:16.877Z,100437.09
2022-09-20T04:31:54.148Z,100432.56
2022-09-20T04:34:51.129Z,100435.19
2022-09-20T04:37:27.611Z,100440.25
2022-09-20T04:40:10.554Z,100441.22
2022-09-20T04:42:59.306Z,100450.53
2022-09-20T04:45:37.389Z,100449.19
2022-09-20T04:48:50.125Z,100446.00
2022-09-20T04:51:26.658Z,100448.84
2022-09-20T04:54:26.059Z,100456.06
2022-09-20T04:57:25.457Z,100457.72
2022-09-20T05:00:11.282Z,100460.97
2022-09-20T05:03:21.197Z,100466.97
2022-09-20T05:06:08.620Z,100464.66
2022-09-20T05:08:35.573Z,100465.78
2022-09-20T05:11:33.679Z,100471.75
2022-09-20T05:14:23.055Z,100472.63
2022-09-20T05:16:58.382Z,100470.19
2022-09-20T05:19:42.730Z,100473.13
2022-09-20T05:22:24.935Z,100467.41
2022-09-20T05:25:10.365Z,100474.34
2022-09-20T05:27:47.768Z,100466.81
2022-09-20T05:30:24.605Z,100461.19
2022-09-20T05:33:16.040Z,100459.19
2022-09-20T05:35:57.367Z,100476.91
2022-09-20T05:41:32.239Z,100465.59
2022-09-20T05:44:24.859Z,100470.56
2022-09-20T05:47:05.348Z,100462.41
2022-09-20T05:49:57.753Z,100471.22
2022-09-20T05:52:45.699Z,100465.88
2022-09-20T05:55:23.799Z,100467.34
2022-09-20T05:58:04.267Z,100465.19
2022-09-20T06:00:40.826Z,100456.56
2022-09-20T06:03:45.672Z,100457.69
2022-09-20T06:06:30.320Z,100452.34
2022-09-20T06:09:21.533Z,100455.88
2022-09-20T06:12:06.756Z,100457.88
2022-09-20T06:14:49.355Z,100458.47
2022-09-20T06:17:36.964Z,100459.13
2022-09-20T06:20:18.557Z,100464.19
2022-09-20T06:22:50.299Z,100468.00
2022-09-20T06:25:26.479Z,100461.72
2022-09-20T06:28:01.817Z,100464.50
2022-09-20T06:30:37.455Z,100460.66
2022-09-20T06:33:14.129Z,100456.09
2022-09-20T06:35:51.895Z,100451.16
2022-09-20T06:38:51.141Z,100460.66
2022-09-20T06:41:28.530Z,100456.09
2022-09-20T06:44:00.713Z,100460.47
2022-09-20T06:46:29.563Z,100459.00
2022-09-20T06:48:58.155Z,100458.81
2022-09-20T06:51:28.822Z,100454.88
2022-09-20T06:53:57.741Z,100462.75
2022-09-20T06:56:31.400Z,100460.22
2022-09-20T06:58:58.649Z,100474.13
2022-09-20T07:01:30.043Z,100468.13
2022-09-20T07:03:58.355Z,100456.53
2022-09-20T07:06:25.341Z,100457.38
2022-09-20T07:08:52.516Z,100464.81
2022-09-20T07:11:19.737Z,100463.97
2022-09-20T07:13:51.676Z,100471.00
2022-09-20T07:16:18.994Z,100473.09
2022-09-20T07:18:46.843Z,100471.03
2022-09-20T07:21:15.946Z,100477.66
2022-09-20T07:23:43.119Z,100479.50
2022-09-20T07:26:25.713Z,100482.81
2022-09-20T07:28:53.776Z,100486.34
2022-09-20T07:31:23.154Z,100486.56
2022-09-20T07:33:50.349Z,100476.81
2022-09-20T07:36:18.283Z,100487.97
2022-09-20T07:38:50.571Z,100486.56
2022-09-20T07:41:23.174Z,100484.47
2022-09-20T07:43:51.224Z,100494.00
2022-09-20T07:46:19.791Z,100498.16
2022-09-20T07:48:46.855Z,100501.66
2022-09-20T07:51:14.309Z,100503.50
2022-09-20T07:53:41.530Z,100497.25
2022-09-20T07:56:12.671Z,100501.44
2022-09-20T07:58:40.696Z,100503.50
2022-09-20T08:01:11.195Z,100503.50
2022-09-20T08:03:38.760Z,100502.91
2022-09-20T08:06:11.639Z,100504.97
2022-09-20T08:08:40.863Z,100497.69
2022-09-20T08:11:14.438Z,100498.41
2022-09-20T08:16:32.854Z,100491.81
2022-09-20T08:19:02.888Z,100486.00
2022-09-20T08:21:33.618Z,100483.41
2022-09-20T08:24:01.265Z,100484.75
2022-09-20T08:26:31.766Z,100483.44
2022-09-20T08:29:00.403Z,100483.28
2022-09-20T08:31:34.556Z,100483.59
2022-09-20T08:34:05.068Z,100480.16
2022-09-20T08:36:36.695Z,100479.28
2022-09-20T08:42:33.864Z,100491.25
2022-09-20T08:45:21.898Z,100487.78
2022-09-20T08:48:00.541Z,100488.13
2022-09-20T08:50:28.898Z,100481.72
2022-09-20T08:53:00.780Z,100489.41
2022-09-20T08:55:36.429Z,100485.78
2022-09-20T08:58:08.491Z,100472.59
2022-09-20T09:00:37.852Z,100466.38
2022-09-20T09:03:17.294Z,100468.41
2022-09-20T09:05:52.895Z,100459.44
2022-09-20T09:08:24.293Z,100453.28
2022-09-20T09:10:56.580Z,100446.31
2022-09-20T09:13:39.858Z,100445.69
2022-09-20T09:16:13.017Z,100444.75
2022-09-20T09:18:42.854Z,100446.97
2022-09-20T09:21:19.318Z,100437.75
2022-09-20T09:24:14.322Z,100443.41
2022-09-20T09:26:43.509Z,100439.66
2022-09-20T09:29:13.539Z,100435.63
2022-09-20T09:31:40.863Z,100430.91
2022-09-20T09:34:30.984Z,100425.75
2022-09-20T09:36:58.563Z,100425.97
2022-09-20T09:39:27.686Z,100416.72
2022-09-20T09:41:55.649Z,100410.16
2022-09-20T09:44:40.523Z,100410.53
2022-09-20T09:47:27.736Z,100403.66
2022-09-20T09:50:07.411Z,100399.63
2022-09-20T09:52:36.987Z,100408.16
2022-09-20T09:55:05.846Z,100400.69
2022-09-20T09:57:42.538Z,100394.31
2022-09-20T10:00:20.533Z,100389.56
2022-09-20T10:03:01.348Z,100397.91
2022-09-20T10:05:35.760Z,100386.91
2022-09-20T10:08:35.618Z,100382.66
2022-09-20T10:11:14.366Z,100379.69
2022-09-20T10:13:52.290Z,100383.97
2022-09-20T10:16:29.460Z,100376.41
2022-09-20T10:19:24.976Z,100377.94
2022-09-20T10:22:13.226Z,100373.09
2022-09-20T10:25:34.574Z,100367.69
2022-09-20T10:28:22.426Z,100366.63
2022-09-20T10:31:07.758Z,100359.81
2022-09-20T10:33:49.673Z,100356.69
2022-09-20T10:36:24.823Z,100368.50
2022-09-20T10:39:34.366Z,100357.47
2022-09-20T10:42:32.296Z,100357.22
2022-09-20T10:46:08.692Z,100350.16
2022-09-20T10:48:52.559Z,100343.97
2022-09-20T10:51:41.683Z,100345.66
2022-09-20T10:54:27.698Z,100351.34
2022-09-20T10:57:27.115Z,100351.41
2022-09-20T10:59:57.688Z,100350.41
2022-09-20T11:02:53.984Z,100345.34
2022-09-20T11:05:33.438Z,100339.31
2022-09-20T11:08:00.320Z,100331.97
2022-09-20T11:11:03.065Z,100333.59
2022-09-20T11:13:45.846Z,100328.97
2022-09-20T11:16:15.135Z,100329.22
2022-09-20T11:18:51.079Z,100326.53
2022-09-20T11:21:29.118Z,100326.47
2022-09-20T11:24:08.196Z,100322.41
2022-09-20T11:26:54.646Z,100319.94
2022-09-20T11:29:35.556Z,100313.31
2022-09-20T11:32:13.906Z,100310.06
2022-09-20T11:34:57.480Z,100309.19
2022-09-20T11:37:33.579Z,100302.03
2022-09-20T11:40:23.246Z,100298.31
2022-09-20T11:42:52.905Z,100299.78
2022-09-20T11:45:23.991Z,100302.28
2022-09-20T11:48:01.603Z,100299.16
2022-09-20T11:50:57.314Z,100290.22
2022-09-20T11:53:41.016Z,100289.16
2022-09-20T11:56:17.481Z,100268.47
2022-09-20T11:58:56.155Z,100280.28
2022-09-20T12:01:33.783Z,100284.75
2022-09-20T12:04:31.168Z,100283.31
2022-09-20T12:07:07.504Z,100286.59
2022-09-20T12:09:42.932Z,100284.34
2022-09-20T12:12:35.849Z,100280.88
2022-09-20T12:15:07.159Z,100280.72
2022-09-20T12:17:45.867Z,100297.47
2022-09-20T12:20:34.922Z,100289.56
2022-09-20T12:23:38.925Z,100289.09
2022-09-20T12:26:21.166Z,100281.47
2022-09-20T12:28:59.509Z,100283.91
2022-09-20T12:31:29.723Z,100277.63
2022-09-20T12:34:12.112Z,100274.91
2022-09-20T12:36:46.841Z,100280.09
2022-09-20T12:39:23.233Z,100272.16
2022-09-20T12:42:23.642Z,100284.19
2022-09-20T12:44:50.561Z,100281.28
2022-09-20T12:47:24.571Z,100293.53
2022-09-20T12:50:13.021Z,100286.91
2022-09-20T12:52:58.226Z,100272.38
2022-09-20T12:55:27.803Z,100272.75
2022-09-20T12:57:58.794Z,100282.84
2022-09-20T13:00:42.823Z,100274.97
2022-09-20T13:03:24.027Z,100277.50
2022-09-20T13:06:17.887Z,100270.53
2022-09-20T13:09:00.286Z,100272.53
2022-09-20T13:11:41.009Z,100268.00
2022-09-20T13:14:07.971Z,100268.06
2022-09-20T13:16:37.617Z,100262.06
2022-09-20T13:19:07.519Z,100264.53
2022-09-20T13:21:38.527Z,100257.97
2022-09-20T13:24:08.265Z,100262.06
2022-09-20T13:26:45.443Z,100251.44
2022-09-20T13:29:30.792Z,100259.34
2022-09-20T13:32:24.901Z,100256.31
2022-09-20T13:35:21.806Z,100260.56
2022-09-20T13:38:02.597Z,100251.88
2022-09-20T13:40:35.813Z,100256.50
2022-09-20T13:43:23.038Z,100258.69
2022-09-20T13:45:57.760Z,100250.28
2022-09-20T13:48:27.023Z,100251.69
2022-09-20T13:50:55.111Z,100250.22
2022-09-20T13:53:40.649Z,100240.53
2022-09-20T13:56:20.358Z,100243.25
2022-09-20T13:58:49.110Z,100242.41
2022-09-20T14:01:27.078Z,100248.72
2022-09-20T14:03:54.806Z,100240.22
2022-09-20T14:06:29.809Z,100248.97
2022-09-20T14:08:59.178Z,100248.41
2022-09-20T14:11:29.171Z,100241.03
2022-09-20T14:13:58.982Z,100242.94
2022-09-20T14:16:39.694Z,100237.22
2022-09-20T14:19:08.394Z,100241.34
2022-09-20T14:21:37.475Z,100246.50
2022-09-20T14:24:08.540Z,100246.78
2022-09-20T14:26:37.673Z,100246.78
2022-09-20T14:29:32.729Z,100242.41
2022-09-20T14:32:04.508Z,100242.91
2022-09-20T14:34:32.005Z,100258.69
2022-09-20T14:37:07.703Z,100246.41
2022-09-20T14:39:45.094Z,100241.16
2022-09-20T14:42:43.891Z,100243.84
2022-09-20T14:45:22.806Z,100242.75
2022-09-20T14:48:26.444Z,100246.25
2022-09-20T14:51:22.481Z,100241.66
2022-09-20T14:54:11.707Z,100249.94
2022-09-20T14:56:49.490Z,100242.88
2022-09-20T14:59:19.095Z,100245.03
2022-09-20T15:02:05.221Z,100246.88
2022-09-20T15:04:35.470Z,100252.81
2022-09-20T15:07:05.232Z,100254.19
2022-09-20T15:09:32.851Z,100270.22
2022-09-20T15:12:01.018Z,100277.59
2022-09-20T15:14:28.299Z,100282.75
2022-09-20T15:16:56.063Z,100295.97
2022-09-20T15:19:23.080Z,100306.00
2022-09-20T15:21:57.085Z,100303.47
2022-09-20T15:24:24.251Z,100312.63
2022-09-20T15:26:51.209Z,100319.22
2022-09-20T15:29:18.715Z,100340.53
2022-09-20T15:31:48.314Z,100325.88
2022-09-20T15:34:16.356Z,100323.72
2022-09-20T15:36:43.691Z,100330.16
2022-09-20T15:39:11.284Z,100324.63
2022-09-20T15:41:38.725Z,100332.38
2022-09-20T15:44:06.737Z,100323.47
2022-09-20T15:46:34.240Z,100316.84
2022-09-20T15:49:02.927Z,100327.06
2022-09-20T15:51:33.420Z,100333.44
2022-09-20T15:54:02.859Z,100344.47
2022-09-20T15:56:33.618Z,100349.75
2022-09-20T15:59:05.216Z,100351.97
2022-09-20T16:01:40.774Z,100365.41
2022-09-20T16:04:10.453Z,100378.66
2022-09-20T16:06:39.280Z,100388.88
2022-09-20T16:09:07.674Z,100409.22
2022-09-20T16:11:34.976Z,100415.97
2022-09-20T16:14:02.078Z,100421.22
2022-09-20T16:16:30.910Z,100412.72
2022-09-20T16:19:16.365Z,100418.25
2022-09-20T16:21:47.280Z,100410.06
2022-09-20T16:24:14.484Z,100411.91
2022-09-20T16:26:41.681Z,100411.84
2022-09-20T16:29:09.128Z,100411.84
2022-09-20T16:31:40.028Z,100422.00
2022-09-20T16:34:11.943Z,100418.81
2022-09-20T16:36:44.400Z,100415.97
2022-09-20T16:39:12.938Z,100416.88
2022-09-20T16:41:40.775Z,100416.94
2022-09-20T16:44:08.217Z,100416.97
2022-09-20T16:46:37.518Z,100413.31
2022-09-20T16:49:09.762Z,100413.97
2022-09-20T16:51:38.372Z,100413.44
2022-09-20T16:54:13.281Z,100408.41
2022-09-20T16:56:43.378Z,100411.81
2022-09-20T16:59:11.410Z,100412.09
2022-09-20T17:01:39.839Z,100409.41
2022-09-20T17:04:07.762Z,100416.84
2022-09-20T17:06:37.204Z,100417.66
2022-09-20T17:09:06.103Z,100413.75
2022-09-20T17:11:38.554Z,100422.28
2022-09-20T17:14:06.447Z,100429.38
2022-09-20T17:16:35.870Z,100429.50
2022-09-20T17:19:08.614Z,100442.81
2022-09-20T17:21:43.646Z,100439.91
2022-09-20T17:24:11.278Z,100443.16
2022-09-20T17:26:40.733Z,100449.38
2022-09-20T17:29:10.636Z,100439.59
2022-09-20T17:31:39.490Z,100449.25
2022-09-20T17:34:09.613Z,100451.25
2022-09-20T17:36:44.799Z,100459.75
2022-09-20T17:39:13.495Z,100452.75
2022-09-20T17:41:42.383Z,100447.59
2022-09-20T17:44:10.333Z,100458.63
2022-09-20T17:46:39.469Z,100463.69
2022-09-20T17:49:09.569Z,100455.78
2022-09-20T17:51:42.728Z,100454.13
2022-09-20T17:54:13.997Z,100449.84
2022-09-20T17:56:43.714Z,100459.91
2022-09-20T17:59:18.374Z,100461.66
2022-09-20T18:01:48.029Z,100466.06
2022-09-20T18:04:15.181Z,100468.41
2022-09-20T18:06:46.911Z,100473.66
2022-09-20T18:09:16.213Z,100471.75
2022-09-20T18:11:46.727Z,100472.97
2022-09-20T18:14:13.795Z,100479.34
2022-09-20T18:16:41.127Z,100483.94
2022-09-20T18:19:08.780Z,100488.81
2022-09-20T18:21:37.483Z,100490.09
2022-09-20T18:24:10.463Z,100490.09
2022-09-20T18:26:38.737Z,100498.41
2022-09-20T18:29:09.653Z,100511.94
2022-09-20T18:31:38.152Z,100501.66
2022-09-20T18:34:07.456Z,100515.47
2022-09-20T18:36:36.784Z,100515.47
2022-09-20T18:39:04.134Z,100510.50
2022-09-20T18:41:33.371Z,100513.44
2022-09-20T18:44:04.658Z,100527.31
2022-09-20T18:46:31.985Z,100531.00
2022-09-20T18:49:04.796Z,100545.44
2022-09-20T18:51:37.142Z,100541.41
2022-09-20T18:54:06.677Z,100542.44
2022-09-20T18:56:38.674Z,100551.63
2022-09-20T18:59:12.607Z,100567.53
2022-09-20T19:01:48.715Z,100589.09
2022-09-20T19:04:49.912Z,100590.22
2022-09-20T19:07:19.790Z,100597.88
2022-09-20T19:09:53.596Z,100599.16
2022-09-20T19:12:34.422Z,100606.00
2022-09-20T19:15:47.204Z,100596.38
2022-09-20T19:18:58.855Z,100597.81
2022-09-20T19:21:37.229Z,100607.72
2022-09-20T19:24:16.612Z,100597.41
2022-09-20T19:26:44.363Z,100601.56
2022-09-20T19:29:22.545Z,100598.66
2022-09-20T19:31:54.483Z,100599.72
2022-09-20T19:34:24.220Z,100600.59
2022-09-20T19:37:09.579Z,100615.19
2022-09-20T19:39:39.640Z,100616.44
2022-09-20T19:42:32.138Z,100622.09
2022-09-20T19:45:32.895Z,100629.78
2022-09-20T19:48:30.783Z,100632.13
2022-09-20T19:50:59.106Z,100635.91
2022-09-20T19:53:28.925Z,100630.88
2022-09-20T19:56:03.187Z,100638.38
2022-09-20T19:58:30.511Z,100640.47
2022-09-20T20:00:58.551Z,100636.75
2022-09-20T20:03:27.623Z,100638.88
2022-09-20T20:06:07.099Z,100640.41
2022-09-20T20:08:42.525Z,100642.03
2022-09-20T20:11:27.080Z,100640.94
2022-09-20T20:14:03.326Z,100642.16
2022-09-20T20:16:30.366Z,100641.75
2022-09-20T20:19:03.144Z,100640.25
2022-09-20T20:21:55.628Z,100652.13
2022-09-20T20:24:45.223Z,100655.91
2022-09-20T20:27:12.168Z,100658.06
2022-09-20T20:29:39.100Z,100653.47
2022-09-20T20:32:06.832Z,100658.50
2022-09-20T20:34:37.069Z,100660.41
2022-09-20T20:37:07.728Z,100664.34
2022-09-20T20:39:34.875Z,100663.69
2022-09-20T20:42:03.519Z,100666.59
2022-09-20T20:44:31.693Z,100670.28
2022-09-20T20:46:58.828Z,100671.34
2022-09-20T20:49:25.987Z,100676.31
2022-09-20T20:51:52.910Z,100679.66
2022-09-20T20:54:21.006Z,100688.41
2022-09-20T20:56:47.980Z,100694.25
2022-09-20T20:59:17.621Z,100696.34
2022-09-20T21:01:47.981Z,100698.22
2022-09-20T21:04:16.473Z,100708.84
2022-09-20T21:06:43.560Z,100697.84
2022-09-20T21:09:11.536Z,100696.41
2022-09-20T21:11:44.601Z,100696.41
2022-09-20T21:14:13.052Z,100704.09
2022-09-20T21:16:42.804Z,100702.66
2022-09-20T21:19:14.945Z,100699.28
2022-09-20T21:21:44.605Z,100703.44
2022-09-20T21:24:13.521Z,100711.31
2022-09-20T21:26:41.120Z,100711.94
2022-09-20T21:29:11.078Z,100714.44
2022-09-20T21:31:40.951Z,100715.88
2022-09-20T21:34:12.320Z,100722.72
2022-09-20T21:36:41.654Z,100721.50
2022-09-20T21:39:09.062Z,100723.16
2022-09-20T21:41:38.312Z,100728.75
2022-09-20T21:44:06.680Z,100726.44
2022-09-20T21:46:35.917Z,100722.94
2022-09-20T21:49:05.797Z,100732.06
2022-09-20T21:51:35.853Z,100729.56
2022-09-20T21:54:04.004Z,100738.44
2022-09-20T21:56:36.450Z,100746.13
2022-09-20T21:59:04.627Z,100740.16
2022-09-20T22:01:35.444Z,100744.72
2022-09-20T22:04:07.842Z,100739.91
2022-09-20T22:06:37.201Z,100747.59
2022-09-20T22:09:13.554Z,100745.31
2022-09-20T22:11:44.550Z,100743.25
2022-09-20T22:14:13.098Z,100751.72
2022-09-20T22:16:42.424Z,100750.91
2022-09-20T22:19:12.264Z,100750.94
2022-09-20T22:21:42.334Z,100741.84
2022-09-20T22:24:10.677Z,100743.25
2022-09-20T22:26:43.356Z,100737.66
2022-09-20T22:29:10.959Z,100742.41
2022-09-20T22:31:45.296Z,100744.91
2022-09-20T22:34:17.736Z,100740.75
2022-09-20T22:36:45.411Z,100739.94
2022-09-20T22:39:13.702Z,100739.50
2022-09-20T22:41:52.762Z,100744.88
2022-09-20T22:44:19.872Z,100736.41
2022-09-20T22:46:46.851Z,100736.41
2022-09-20T22:49:13.902Z,100737.25
2022-09-20T22:51:40.981Z,100739.34
2022-09-20T22:54:10.220Z,100736.84
2022-09-20T22:56:38.696Z,100740.34
2022-09-20T22:59:08.356Z,100739.75
2022-09-20T23:01:38.144Z,100739.75
2022-09-20T23:04:16.945Z,100752.78
2022-09-20T23:06:48.073Z,100742.25
2022-09-20T23:09:17.930Z,100750.69
2022-09-20T23:11:45.870Z,100745.72
2022-09-20T23:14:21.326Z,100744.47
2022-09-20T23:16:49.553Z,100747.41
2022-09-20T23:19:17.404Z,100745.78
2022-09-20T23:21:45.137Z,100736.22
2022-09-20T23:24:13.947Z,100741.84
2022-09-20T23:26:42.450Z,100741.41
2022-09-20T23:29:15.170Z,100742.47
2022-09-20T23:31:45.828Z,100737.66
2022-09-20T23:34:13.948Z,100742.22
2022-09-20T23:36:44.421Z,100744.09
2022-09-20T23:39:12.323Z,100741.84
2022-09-20T23:41:39.681Z,100741.19
2022-09-20T23:44:09.819Z,100749.09
2022-09-20T23:46:37.523Z,100748.66
2022-09-20T23:49:05.255Z,100754.88
2022-09-20T23:51:32.808Z,100744.09
2022-09-20T23:53:59.994Z,100747.84
2022-09-20T23:56:27.679Z,100745.16
2022-09-20T23:58:55.008Z,100751.38
